createdAt,value
2019-05-09T00:01:34.777Z,14.18
2019-05-09T00:04:03.573Z,12.47
2019-05-09T00:06:33.953Z,12.37
2019-05-09T00:09:03.709Z,13.05
2019-05-09T00:11:33.511Z,13.72
2019-05-09T00:14:04.498Z,12.58
2019-05-09T00:16:33.595Z,13.40
2019-05-09T00:19:03.296Z,13.00
2019-05-09T00:21:33.904Z,12.85
2019-05-09T00:24:03.508Z,12.33
2019-05-09T00:26:33.905Z,13.38
2019-05-09T00:29:10.234Z,12.60
2019-05-09T00:31:40.734Z,13.15
2019-05-09T00:34:14.429Z,11.90
2019-05-09T00:36:43.789Z,11.43
2019-05-09T00:39:13.389Z,12.33
2019-05-09T00:41:43.522Z,11.40
2019-05-09T00:44:26.056Z,13.03
2019-05-09T00:46:56.413Z,13.00
2019-05-09T00:49:26.828Z,11.90
2019-05-09T00:51:55.594Z,12.03
2019-05-09T00:54:24.450Z,12.88
2019-05-09T00:56:53.956Z,12.13
2019-05-09T00:59:24.121Z,12.07
2019-05-09T01:01:54.359Z,11.50
2019-05-09T01:04:24.162Z,12.07
2019-05-09T01:06:53.980Z,10.85
2019-05-09T01:09:24.176Z,11.85
2019-05-09T01:11:53.524Z,11.83
2019-05-09T01:14:23.415Z,11.35
2019-05-09T01:16:53.515Z,11.48
2019-05-09T01:19:23.337Z,11.48
2019-05-09T01:21:54.260Z,12.25
2019-05-09T01:24:23.337Z,10.95
2019-05-09T01:26:54.154Z,11.65
2019-05-09T01:29:23.159Z,10.70
2019-05-09T01:31:54.148Z,11.43
2019-05-09T01:34:24.640Z,12.43
2019-05-09T01:37:14.084Z,11.18
2019-05-09T01:39:44.055Z,13.28
2019-05-09T01:42:13.762Z,12.65
2019-05-09T01:44:44.055Z,10.68
2019-05-09T01:47:14.064Z,10.20
2019-05-09T01:49:43.256Z,10.20
2019-05-09T01:52:13.751Z,8.98
2019-05-09T01:54:43.922Z,9.58
2019-05-09T01:57:13.873Z,9.75
2019-05-09T01:59:44.315Z,10.38
2019-05-09T02:02:14.237Z,9.70
2019-05-09T02:04:43.962Z,9.83
2019-05-09T02:07:13.459Z,9.00
2019-05-09T02:09:43.414Z,10.28
2019-05-09T02:12:14.121Z,7.83
2019-05-09T02:15:03.873Z,9.78
2019-05-09T02:17:58.872Z,8.90
2019-05-09T02:20:21.372Z,10.38
2019-05-09T02:22:50.150Z,9.48
2019-05-09T02:25:18.999Z,10.55
2019-05-09T02:27:47.759Z,8.63
2019-05-09T02:30:16.701Z,8.75
2019-05-09T02:32:45.534Z,9.83
2019-05-09T02:35:15.153Z,9.50
2019-05-09T02:37:44.013Z,8.58
2019-05-09T02:40:13.289Z,8.98
2019-05-09T02:42:42.182Z,9.03
2019-05-09T02:45:11.476Z,8.70
2019-05-09T02:47:40.292Z,9.23
2019-05-09T02:50:10.263Z,9.20
2019-05-09T02:52:39.937Z,9.10
2019-05-09T02:55:10.149Z,9.38
2019-05-09T02:57:39.366Z,8.65
2019-05-09T03:00:22.020Z,9.45
2019-05-09T03:02:52.440Z,9.15
2019-05-09T03:05:21.221Z,8.78
2019-05-09T03:07:50.000Z,8.95
2019-05-09T03:10:20.045Z,8.98
2019-05-09T03:12:50.246Z,9.03
2019-05-09T03:15:19.856Z,9.40
2019-05-09T03:17:49.677Z,9.40
2019-05-09T03:20:28.904Z,9.85
2019-05-09T03:22:58.359Z,9.25
2019-05-09T03:25:28.945Z,9.63
2019-05-09T03:28:09.646Z,8.60
2019-05-09T03:30:49.830Z,8.93
2019-05-09T03:33:20.097Z,9.08
2019-05-09T03:35:48.176Z,9.15
2019-05-09T03:38:17.950Z,8.85
2019-05-09T03:40:47.679Z,8.75
2019-05-09T03:43:18.403Z,8.68
2019-05-09T03:45:51.772Z,9.15
2019-05-09T03:48:31.460Z,9.30
2019-05-09T03:51:00.279Z,9.68
2019-05-09T03:53:29.031Z,9.50
2019-05-09T03:55:59.398Z,8.93
2019-05-09T03:58:28.265Z,10.25
2019-05-09T04:00:58.032Z,8.68
2019-05-09T04:03:27.686Z,9.63
2019-05-09T04:06:02.590Z,9.93
2019-05-09T04:08:28.237Z,9.38
2019-05-09T04:10:58.658Z,9.53
2019-05-09T04:13:29.291Z,10.72
2019-05-09T04:15:58.340Z,10.10
2019-05-09T04:18:27.758Z,10.65
2019-05-09T04:20:57.419Z,10.25
2019-05-09T04:23:27.579Z,10.05
2019-05-09T04:26:04.294Z,9.30
2019-05-09T04:28:33.118Z,10.50
2019-05-09T04:31:01.857Z,9.55
2019-05-09T04:33:30.631Z,11.25
2019-05-09T04:35:59.431Z,11.08
2019-05-09T04:38:28.191Z,9.70
2019-05-09T04:40:58.346Z,10.82
2019-05-09T04:43:35.761Z,11.73
2019-05-09T04:45:59.479Z,11.93
2019-05-09T04:48:32.582Z,11.50
2019-05-09T04:51:03.956Z,12.10
2019-05-09T04:53:33.531Z,13.43
2019-05-09T04:56:04.130Z,14.63
2019-05-09T04:58:32.919Z,13.48
2019-05-09T05:01:09.192Z,12.78
2019-05-09T05:03:38.571Z,14.10
2019-05-09T05:06:07.710Z,13.70
2019-05-09T05:08:37.540Z,14.60
2019-05-09T05:11:07.471Z,14.07
2019-05-09T05:13:38.360Z,15.23
2019-05-09T05:16:08.316Z,13.85
2019-05-09T05:18:37.499Z,15.48
2019-05-09T05:21:07.815Z,14.70
2019-05-09T05:23:38.479Z,14.55
2019-05-09T05:26:09.203Z,13.90
2019-05-09T05:28:38.242Z,15.00
2019-05-09T05:31:07.469Z,12.47
2019-05-09T05:33:57.774Z,15.20
2019-05-09T05:36:28.002Z,14.10
2019-05-09T05:38:58.445Z,15.65
2019-05-09T05:41:28.482Z,13.03
2019-05-09T05:43:58.127Z,16.27
2019-05-09T05:46:48.311Z,14.70
2019-05-09T05:49:15.632Z,18.32
2019-05-09T05:51:50.221Z,17.02
2019-05-09T05:54:20.269Z,18.60
2019-05-09T05:56:49.234Z,19.15
2019-05-09T05:59:18.410Z,18.70
2019-05-09T06:01:47.922Z,20.17
2019-05-09T06:04:18.601Z,20.05
2019-05-09T06:06:48.040Z,20.20
2019-05-09T06:09:18.929Z,19.75
2019-05-09T06:11:48.529Z,20.57
2019-05-09T06:14:18.473Z,21.80
2019-05-09T06:16:48.584Z,23.07
2019-05-09T06:19:18.218Z,23.30
2019-05-09T06:21:48.539Z,23.40
2019-05-09T06:24:17.995Z,23.75
2019-05-09T06:26:47.927Z,26.05
2019-05-09T06:29:17.777Z,28.10
2019-05-09T06:31:48.362Z,29.35
2019-05-09T06:34:18.682Z,30.75
2019-05-09T06:36:48.881Z,29.15
2019-05-09T06:39:18.106Z,28.20
2019-05-09T06:41:48.296Z,27.48
2019-05-09T06:44:31.172Z,30.90
2019-05-09T06:47:04.553Z,34.08
2019-05-09T06:49:34.899Z,31.82
2019-05-09T06:52:03.650Z,34.95
2019-05-09T06:54:32.411Z,34.05
2019-05-09T06:57:01.212Z,36.00
2019-05-09T06:59:29.979Z,36.13
2019-05-09T07:02:00.291Z,34.40
2019-05-09T07:04:33.379Z,32.00
2019-05-09T07:07:07.983Z,30.85
2019-05-09T07:09:38.539Z,29.37
2019-05-09T07:12:07.863Z,32.50
2019-05-09T07:14:40.980Z,32.93
2019-05-09T07:17:08.448Z,33.65
2019-05-09T07:19:38.287Z,34.58
2019-05-09T07:22:21.310Z,31.52
2019-05-09T07:25:10.683Z,34.30
2019-05-09T07:27:41.539Z,34.67
2019-05-09T07:30:12.651Z,38.28
2019-05-09T07:32:54.991Z,37.38
2019-05-09T07:35:23.873Z,32.05
2019-05-09T07:37:52.611Z,38.15
2019-05-09T07:40:21.412Z,35.92
2019-05-09T07:42:50.159Z,36.88
2019-05-09T07:45:18.981Z,37.10
2019-05-09T07:47:48.070Z,38.65
2019-05-09T07:50:18.898Z,39.25
2019-05-09T07:52:48.062Z,33.00
2019-05-09T07:55:17.990Z,34.55
2019-05-09T07:57:54.702Z,39.67
2019-05-09T08:00:20.568Z,41.48
2019-05-09T08:02:49.324Z,39.18
2019-05-09T08:05:21.032Z,37.53
2019-05-09T08:07:49.831Z,40.12
2019-05-09T08:10:18.619Z,39.63
2019-05-09T08:12:48.099Z,35.85
2019-05-09T08:15:20.056Z,37.70
2019-05-09T08:17:48.806Z,36.28
2019-05-09T08:20:17.843Z,36.65
2019-05-09T08:22:57.402Z,38.38
2019-05-09T08:25:18.339Z,36.53
2019-05-09T08:27:48.263Z,36.55
2019-05-09T08:30:18.058Z,40.92
2019-05-09T08:32:48.197Z,36.17
2019-05-09T08:35:18.324Z,28.30
2019-05-09T08:37:47.783Z,32.63
2019-05-09T08:40:21.065Z,37.08
2019-05-09T08:42:48.051Z,31.97
2019-05-09T08:45:25.311Z,36.28
2019-05-09T08:47:48.499Z,37.65
2019-05-09T08:50:39.034Z,36.45
2019-05-09T08:53:08.312Z,38.75
2019-05-09T08:55:38.337Z,35.98
2019-05-09T08:58:08.149Z,40.45
2019-05-09T09:00:39.110Z,39.18
2019-05-09T09:03:08.115Z,35.25
2019-05-09T09:05:38.062Z,32.83
2019-05-09T09:08:08.255Z,37.70
2019-05-09T09:10:38.528Z,33.45
2019-05-09T09:13:08.948Z,37.88
2019-05-09T09:15:58.064Z,28.98
2019-05-09T09:18:09.332Z,37.90
2019-05-09T09:20:38.361Z,40.73
2019-05-09T09:23:08.864Z,39.42
2019-05-09T09:25:39.056Z,36.83
2019-05-09T09:28:08.920Z,36.00
2019-05-09T09:30:38.741Z,35.55
2019-05-09T09:33:11.419Z,38.83
2019-05-09T09:35:38.558Z,38.83
2019-05-09T09:38:09.324Z,38.05
2019-05-09T09:40:38.659Z,36.15
2019-05-09T09:43:09.308Z,38.28
2019-05-09T09:45:38.228Z,37.40
2019-05-09T09:48:08.955Z,35.30
2019-05-09T09:50:38.399Z,39.88
2019-05-09T09:53:08.791Z,38.38
2019-05-09T09:55:38.547Z,37.23
2019-05-09T09:58:08.258Z,38.53
2019-05-09T10:00:58.421Z,37.63
2019-05-09T10:03:26.851Z,29.90
2019-05-09T10:05:57.746Z,35.00
2019-05-09T10:08:26.131Z,36.20
2019-05-09T10:10:54.951Z,37.30
2019-05-09T10:13:23.731Z,35.85
2019-05-09T10:15:54.137Z,36.77
2019-05-09T10:18:40.531Z,36.17
2019-05-09T10:21:10.872Z,38.45
2019-05-09T10:23:39.691Z,39.00
2019-05-09T10:26:08.736Z,34.58
2019-05-09T10:28:38.113Z,37.85
2019-05-09T10:31:07.071Z,37.48
2019-05-09T10:33:37.519Z,37.30
2019-05-09T10:36:08.525Z,38.67
2019-05-09T10:38:38.539Z,36.93
2019-05-09T10:41:10.974Z,34.48
2019-05-09T10:43:39.901Z,32.05
2019-05-09T10:46:19.646Z,34.45
2019-05-09T10:48:50.198Z,37.23
2019-05-09T10:51:18.951Z,39.73
2019-05-09T10:53:48.251Z,33.60
2019-05-09T10:56:18.740Z,35.00
2019-05-09T10:58:48.379Z,34.58
2019-05-09T11:01:18.539Z,34.13
2019-05-09T11:03:48.378Z,35.20
2019-05-09T11:06:18.409Z,30.62
2019-05-09T11:08:47.983Z,32.17
2019-05-09T11:11:18.329Z,31.70
2019-05-09T11:13:48.211Z,31.33
2019-05-09T11:16:18.401Z,34.90
2019-05-09T11:18:48.478Z,32.50
2019-05-09T11:21:19.274Z,33.42
2019-05-09T11:23:48.837Z,31.45
2019-05-09T11:26:18.353Z,28.87
2019-05-09T11:28:47.351Z,30.82
2019-05-09T11:31:18.469Z,33.58
2019-05-09T11:33:48.464Z,31.50
2019-05-09T11:36:20.817Z,33.73
2019-05-09T11:38:49.583Z,31.17
2019-05-09T11:41:19.299Z,31.90
2019-05-09T11:43:48.856Z,31.68
2019-05-09T11:46:18.330Z,31.25
2019-05-09T11:48:47.395Z,26.02
2019-05-09T11:51:20.527Z,31.10
2019-05-09T11:53:48.661Z,29.48
2019-05-09T11:56:18.014Z,28.65
2019-05-09T11:58:48.183Z,28.27
2019-05-09T12:01:18.982Z,33.00
2019-05-09T12:03:51.946Z,27.70
2019-05-09T12:06:19.990Z,28.80
2019-05-09T12:08:49.091Z,26.02
2019-05-09T12:11:18.585Z,26.25
2019-05-09T12:13:48.538Z,27.87
2019-05-09T12:16:18.753Z,28.75
2019-05-09T12:18:48.889Z,28.80
2019-05-09T12:21:19.036Z,26.45
2019-05-09T12:23:49.064Z,27.30
2019-05-09T12:26:18.699Z,26.02
2019-05-09T12:28:48.273Z,26.82
2019-05-09T12:31:18.181Z,21.50
2019-05-09T12:33:48.260Z,28.20
2019-05-09T12:36:19.266Z,28.07
2019-05-09T12:38:49.790Z,29.00
2019-05-09T12:41:19.249Z,29.98
2019-05-09T12:43:48.152Z,31.10
2019-05-09T12:46:16.931Z,30.65
2019-05-09T12:48:47.927Z,28.17
2019-05-09T12:51:18.395Z,27.70
2019-05-09T12:53:48.423Z,25.70
2019-05-09T12:56:18.667Z,27.35
2019-05-09T12:58:47.914Z,25.12
2019-05-09T13:01:18.788Z,24.45
2019-05-09T13:03:48.470Z,25.95
2019-05-09T13:06:20.261Z,25.27
2019-05-09T13:08:48.169Z,26.23
2019-05-09T13:11:18.968Z,26.65
2019-05-09T13:13:48.124Z,24.37
2019-05-09T13:16:21.579Z,25.08
2019-05-09T13:19:04.004Z,24.50
2019-05-09T13:21:33.359Z,24.27
2019-05-09T13:24:02.477Z,24.18
2019-05-09T13:26:31.355Z,21.82
2019-05-09T13:29:00.148Z,23.22
2019-05-09T13:31:30.056Z,23.55
2019-05-09T13:33:58.815Z,22.60
2019-05-09T13:36:28.410Z,22.13
2019-05-09T13:39:04.342Z,20.65
2019-05-09T13:41:28.175Z,19.90
2019-05-09T13:43:59.313Z,20.82
2019-05-09T13:46:28.295Z,24.37
2019-05-09T13:49:10.990Z,24.85
2019-05-09T13:51:27.836Z,23.70
2019-05-09T13:53:59.062Z,25.92
2019-05-09T13:56:28.013Z,27.02
2019-05-09T13:58:58.192Z,23.87
2019-05-09T14:01:27.216Z,26.82
2019-05-09T14:03:57.680Z,31.70
2019-05-09T14:06:27.761Z,26.87
2019-05-09T14:08:59.455Z,37.95
2019-05-09T14:11:29.110Z,26.37
2019-05-09T14:13:57.835Z,33.80
2019-05-09T14:16:28.642Z,25.82
2019-05-09T14:19:04.032Z,27.82
2019-05-09T14:21:29.729Z,38.28
2019-05-09T14:24:10.913Z,22.50
2019-05-09T14:26:29.135Z,30.75
2019-05-09T14:28:58.346Z,31.57
2019-05-09T14:31:32.141Z,32.40
2019-05-09T14:33:57.698Z,45.30
2019-05-09T14:36:27.760Z,47.78
2019-05-09T14:38:57.981Z,35.75
2019-05-09T14:41:27.881Z,23.40
2019-05-09T14:43:56.735Z,33.15
2019-05-09T14:46:25.536Z,32.35
2019-05-09T14:48:54.297Z,33.88
2019-05-09T14:51:23.116Z,26.12
2019-05-09T14:53:51.882Z,25.55
2019-05-09T14:56:20.655Z,25.23
2019-05-09T14:58:49.435Z,38.88
2019-05-09T15:01:19.305Z,45.88
2019-05-09T15:03:48.627Z,36.77
2019-05-09T15:06:18.266Z,34.50
2019-05-09T15:08:48.243Z,34.90
2019-05-09T15:11:18.100Z,34.27
2019-05-09T15:13:47.805Z,31.90
2019-05-09T15:16:18.390Z,26.95
2019-05-09T15:18:48.635Z,28.02
2019-05-09T15:21:19.165Z,53.68
2019-05-09T15:23:48.331Z,29.57
2019-05-09T15:26:17.770Z,39.80
2019-05-09T15:28:48.392Z,26.50
2019-05-09T15:31:18.349Z,26.35
2019-05-09T15:33:48.654Z,33.42
2019-05-09T15:36:19.201Z,30.32
2019-05-09T15:38:48.741Z,24.57
2019-05-09T15:41:18.361Z,25.80
2019-05-09T15:43:48.513Z,26.93
2019-05-09T15:46:19.176Z,26.10
2019-05-09T15:48:47.975Z,24.77
2019-05-09T15:51:17.975Z,25.95
2019-05-09T15:53:48.693Z,23.20
2019-05-09T15:56:18.780Z,25.25
2019-05-09T15:58:49.020Z,22.95
2019-05-09T16:01:18.447Z,23.38
2019-05-09T16:03:48.531Z,24.37
2019-05-09T16:06:19.889Z,22.95
2019-05-09T16:08:48.237Z,26.62
2019-05-09T16:11:18.005Z,21.93
2019-05-09T16:13:47.952Z,22.02
2019-05-09T16:16:17.566Z,22.15
2019-05-09T16:18:48.569Z,21.93
2019-05-09T16:21:17.156Z,22.37
2019-05-09T16:23:48.500Z,22.98
2019-05-09T16:26:18.135Z,20.20
2019-05-09T16:28:48.816Z,22.98
2019-05-09T16:31:17.755Z,23.15
2019-05-09T16:33:47.748Z,22.13
2019-05-09T16:36:17.533Z,22.45
2019-05-09T16:38:48.971Z,22.22
2019-05-09T16:41:18.539Z,23.05
2019-05-09T16:43:48.038Z,23.12
2019-05-09T16:46:18.125Z,23.95
2019-05-09T16:48:47.603Z,24.02
2019-05-09T16:51:18.203Z,23.50
2019-05-09T16:53:49.563Z,29.00
2019-05-09T16:56:18.067Z,30.40
2019-05-09T16:58:46.956Z,31.00
2019-05-09T17:01:18.598Z,31.10
2019-05-09T17:03:47.017Z,29.80
2019-05-09T17:06:18.269Z,30.95
2019-05-09T17:08:47.557Z,49.93
2019-05-09T17:11:19.232Z,36.15
2019-05-09T17:13:46.959Z,41.33
2019-05-09T17:16:17.683Z,36.35
2019-05-09T17:18:48.476Z,41.83
2019-05-09T17:21:21.513Z,34.40
2019-05-09T17:23:49.355Z,39.80
2019-05-09T17:26:18.975Z,34.95
2019-05-09T17:28:48.518Z,34.27
2019-05-09T17:31:18.221Z,49.10
2019-05-09T17:33:48.573Z,72.75
2019-05-09T17:36:18.186Z,73.25
2019-05-09T17:38:47.931Z,60.52
2019-05-09T17:41:17.747Z,53.58
2019-05-09T17:43:47.456Z,53.28
2019-05-09T17:46:18.989Z,38.17
2019-05-09T17:48:47.987Z,40.78
2019-05-09T17:51:25.918Z,33.20
2019-05-09T17:53:51.770Z,37.08
2019-05-09T17:56:18.216Z,35.30
2019-05-09T17:58:48.543Z,39.20
2019-05-09T18:01:18.170Z,40.52
2019-05-09T18:03:48.091Z,54.45
2019-05-09T18:06:19.122Z,66.28
2019-05-09T18:08:48.415Z,77.50
2019-05-09T18:11:17.621Z,76.80
2019-05-09T18:13:48.069Z,60.12
2019-05-09T18:16:18.951Z,64.05
2019-05-09T18:18:48.458Z,54.23
2019-05-09T18:21:17.894Z,46.68
2019-05-09T18:23:47.886Z,56.33
2019-05-09T18:26:18.538Z,43.48
2019-05-09T18:28:47.980Z,40.03
2019-05-09T18:31:17.001Z,44.53
2019-05-09T18:33:50.134Z,45.73
2019-05-09T18:36:18.938Z,50.15
2019-05-09T18:38:48.132Z,40.08
2019-05-09T18:41:17.780Z,41.05
2019-05-09T18:43:47.967Z,41.95
2019-05-09T18:46:17.927Z,42.93
2019-05-09T18:48:47.538Z,42.20
2019-05-09T18:51:16.417Z,43.90
2019-05-09T18:53:45.239Z,44.35
2019-05-09T18:56:14.079Z,44.70
2019-05-09T18:58:42.936Z,71.82
2019-05-09T19:01:11.796Z,60.40
2019-05-09T19:03:40.695Z,56.80
2019-05-09T19:06:09.535Z,52.23
2019-05-09T19:08:38.355Z,46.05
2019-05-09T19:11:07.393Z,49.15
2019-05-09T19:13:36.241Z,45.58
2019-05-09T19:16:09.535Z,51.28
2019-05-09T19:18:42.757Z,54.93
2019-05-09T19:21:16.082Z,60.45
2019-05-09T19:23:44.955Z,52.83
2019-05-09T19:26:31.857Z,69.72
2019-05-09T19:29:00.697Z,65.28
2019-05-09T19:31:29.495Z,78.17
2019-05-09T19:33:58.357Z,84.92
2019-05-09T19:36:27.178Z,86.50
2019-05-09T19:38:56.015Z,102.67
2019-05-09T19:41:24.808Z,75.22
2019-05-09T19:43:53.616Z,85.20
2019-05-09T19:46:22.457Z,57.50
2019-05-09T19:48:51.322Z,58.23
2019-05-09T19:51:20.243Z,76.40
2019-05-09T19:53:49.095Z,76.12
2019-05-09T19:56:17.938Z,79.87
2019-05-09T19:58:46.775Z,92.35
2019-05-09T20:01:15.656Z,61.92
2019-05-09T20:03:44.477Z,59.70
2019-05-09T20:06:16.460Z,59.40
2019-05-09T20:08:44.054Z,62.13
2019-05-09T20:11:23.743Z,66.02
2019-05-09T20:13:59.796Z,61.73
2019-05-09T20:16:42.796Z,61.83
2019-05-09T20:19:11.655Z,67.50
2019-05-09T20:21:40.397Z,63.83
2019-05-09T20:24:09.492Z,70.17
2019-05-09T20:26:38.417Z,68.17
2019-05-09T20:29:07.178Z,67.17
2019-05-09T20:31:35.961Z,68.87
2019-05-09T20:34:05.205Z,68.33
2019-05-09T20:36:33.990Z,68.37
2019-05-09T20:39:02.928Z,68.25
2019-05-09T20:41:31.899Z,66.37
2019-05-09T20:44:00.857Z,70.78
2019-05-09T20:46:29.881Z,71.47
2019-05-09T20:48:58.856Z,69.12
2019-05-09T20:51:27.816Z,70.20
2019-05-09T20:53:56.816Z,71.92
2019-05-09T20:56:25.775Z,72.80
2019-05-09T20:58:54.777Z,73.07
2019-05-09T21:01:23.736Z,73.40
2019-05-09T21:04:00.053Z,68.17
2019-05-09T21:06:23.421Z,73.00
2019-05-09T21:08:52.356Z,72.35
2019-05-09T21:11:21.297Z,72.47
2019-05-09T21:13:50.298Z,72.15
2019-05-09T21:16:19.258Z,73.62
2019-05-09T21:18:48.218Z,71.70
2019-05-09T21:21:17.215Z,70.83
2019-05-09T21:23:46.156Z,71.02
2019-05-09T21:26:15.095Z,68.83
2019-05-09T21:28:44.077Z,67.67
2019-05-09T21:31:13.015Z,68.22
2019-05-09T21:33:42.015Z,67.37
2019-05-09T21:36:10.756Z,65.75
2019-05-09T21:38:39.539Z,67.15
2019-05-09T21:41:08.376Z,66.72
2019-05-09T21:43:37.157Z,66.75
2019-05-09T21:46:05.917Z,66.80
2019-05-09T21:48:38.031Z,66.45
2019-05-09T21:51:05.231Z,67.25
2019-05-09T21:53:41.111Z,66.15
2019-05-09T21:56:04.579Z,67.42
2019-05-09T21:58:33.315Z,66.42
2019-05-09T22:01:02.539Z,66.40
2019-05-09T22:03:31.296Z,68.15
2019-05-09T22:06:00.057Z,67.00
2019-05-09T22:08:28.855Z,63.90
2019-05-09T22:10:57.601Z,63.13
2019-05-09T22:13:26.427Z,65.25
2019-05-09T22:15:55.278Z,62.73
2019-05-09T22:18:24.036Z,61.75
2019-05-09T22:20:52.855Z,62.65
2019-05-09T22:23:21.615Z,62.95
2019-05-09T22:25:50.357Z,60.52
2019-05-09T22:28:19.135Z,65.78
2019-05-09T22:30:47.895Z,62.08
2019-05-09T22:33:16.758Z,59.00
2019-05-09T22:35:45.496Z,55.80
2019-05-09T22:38:14.218Z,55.30
2019-05-09T22:40:43.055Z,54.00
2019-05-09T22:43:11.777Z,54.35
2019-05-09T22:45:40.655Z,52.27
2019-05-09T22:48:09.434Z,50.55
2019-05-09T22:50:38.156Z,47.60
2019-05-09T22:53:06.975Z,47.88
2019-05-09T22:55:35.714Z,42.10
2019-05-09T22:58:04.559Z,45.43
2019-05-09T23:00:33.375Z,46.60
2019-05-09T23:03:02.135Z,49.10
2019-05-09T23:05:30.935Z,44.98
2019-05-09T23:07:59.695Z,44.90
2019-05-09T23:10:28.455Z,47.40
2019-05-09T23:12:57.257Z,49.88
2019-05-09T23:15:25.976Z,48.00
2019-05-09T23:17:54.715Z,48.25
2019-05-09T23:20:33.976Z,70.42
2019-05-09T23:23:04.298Z,109.78
2019-05-09T23:25:33.115Z,47.83
2019-05-09T23:28:01.877Z,45.58
2019-05-09T23:30:30.640Z,43.08
2019-05-09T23:32:59.416Z,45.48
2019-05-09T23:35:28.156Z,45.40
2019-05-09T23:37:56.957Z,38.38
2019-05-09T23:40:25.715Z,40.92
2019-05-09T23:42:54.435Z,42.93
2019-05-09T23:45:23.275Z,38.78
2019-05-09T23:47:52.034Z,43.30
2019-05-09T23:50:20.755Z,46.77
2019-05-09T23:52:49.554Z,49.48
2019-05-09T23:55:36.696Z,48.05
2019-05-09T23:58:23.475Z,47.98
